createdAt,value
2018-12-27T00:00:53.906Z,9.50
2018-12-27T00:03:21.626Z,9.40
2018-12-27T00:05:49.350Z,9.40
2018-12-27T00:08:16.980Z,9.30
2018-12-27T00:10:44.750Z,9.40
2018-12-27T00:13:12.376Z,9.60
2018-12-27T00:15:40.141Z,9.70
2018-12-27T00:18:07.984Z,9.50
2018-12-27T00:20:35.719Z,9.30
2018-12-27T00:23:03.483Z,9.30
2018-12-27T00:25:31.086Z,9.40
2018-12-27T00:27:58.810Z,9.40
2018-12-27T00:30:26.459Z,9.40
2018-12-27T00:32:54.170Z,9.40
2018-12-27T00:35:21.806Z,9.40
2018-12-27T00:37:49.574Z,9.50
2018-12-27T00:40:17.211Z,9.60
2018-12-27T00:42:45.012Z,9.70
2018-12-27T00:45:12.639Z,9.60
2018-12-27T00:47:40.242Z,9.20
2018-12-27T00:50:08.144Z,9.30
2018-12-27T00:52:35.768Z,9.40
2018-12-27T00:55:03.614Z,9.20
2018-12-27T00:57:31.271Z,9.30
2018-12-27T00:59:58.995Z,9.40
2018-12-27T01:02:26.661Z,9.20
2018-12-27T01:04:54.348Z,9.40
2018-12-27T01:07:21.998Z,9.00
2018-12-27T01:09:49.746Z,8.90
2018-12-27T01:12:17.483Z,9.00
2018-12-27T01:14:45.123Z,9.00
2018-12-27T01:17:12.886Z,8.90
2018-12-27T01:19:40.514Z,8.90
2018-12-27T01:22:08.405Z,9.00
2018-12-27T01:24:37.337Z,8.90
2018-12-27T01:27:04.969Z,8.80
2018-12-27T01:29:32.697Z,8.90
2018-12-27T01:32:00.319Z,9.10
2018-12-27T01:34:28.049Z,9.10
2018-12-27T01:36:55.775Z,9.20
2018-12-27T01:39:23.447Z,9.10
2018-12-27T01:41:51.057Z,9.10
2018-12-27T01:44:18.753Z,9.30
2018-12-27T01:46:46.377Z,9.40
2018-12-27T01:49:14.129Z,9.10
2018-12-27T01:51:41.737Z,9.00
2018-12-27T01:54:09.869Z,9.00
2018-12-27T01:56:37.596Z,9.10
2018-12-27T01:59:05.311Z,8.80
2018-12-27T02:01:33.125Z,8.50
2018-12-27T02:04:00.767Z,8.60
2018-12-27T02:06:28.409Z,8.90
2018-12-27T02:08:56.088Z,8.70
2018-12-27T02:11:23.719Z,8.90
2018-12-27T02:13:51.544Z,9.10
2018-12-27T02:16:20.279Z,9.10
2018-12-27T02:18:48.026Z,8.90
2018-12-27T02:21:15.652Z,8.90
2018-12-27T02:23:43.364Z,9.00
2018-12-27T02:26:11.033Z,9.10
2018-12-27T02:28:38.646Z,9.20
2018-12-27T02:31:06.380Z,9.40
2018-12-27T02:33:35.431Z,9.30
2018-12-27T02:36:03.496Z,9.10
2018-12-27T02:38:31.184Z,9.20
2018-12-27T02:40:58.862Z,9.00
2018-12-27T02:43:26.516Z,9.10
2018-12-27T02:45:54.216Z,9.20
2018-12-27T02:48:21.856Z,9.20
2018-12-27T02:50:49.556Z,9.30
2018-12-27T02:53:17.386Z,9.50
2018-12-27T02:55:44.995Z,9.50
2018-12-27T02:58:12.874Z,9.60
2018-12-27T03:00:40.477Z,9.60
2018-12-27T03:03:09.252Z,9.40
2018-12-27T03:05:36.964Z,9.60
2018-12-27T03:08:04.941Z,9.70
2018-12-27T03:10:32.677Z,9.60
2018-12-27T03:13:00.304Z,9.60
2018-12-27T03:15:28.012Z,9.60
2018-12-27T03:17:55.735Z,9.70
2018-12-27T03:20:23.493Z,9.70
2018-12-27T03:22:51.103Z,9.80
2018-12-27T03:25:18.832Z,9.90
2018-12-27T03:27:46.482Z,10.00
2018-12-27T03:30:14.258Z,9.90
2018-12-27T03:32:42.112Z,10.00
2018-12-27T03:35:09.958Z,10.00
2018-12-27T03:37:37.673Z,10.00
2018-12-27T03:40:05.234Z,10.10
2018-12-27T03:42:32.982Z,10.10
2018-12-27T03:45:00.869Z,10.10
2018-12-27T03:47:28.746Z,9.90
2018-12-27T03:49:56.390Z,9.80
2018-12-27T03:52:24.119Z,9.40
2018-12-27T03:54:51.759Z,9.30
2018-12-27T03:57:20.247Z,9.50
2018-12-27T03:59:47.936Z,9.60
2018-12-27T04:02:16.703Z,9.50
2018-12-27T04:04:44.442Z,9.30
2018-12-27T04:07:12.062Z,9.30
2018-12-27T04:09:39.747Z,9.30
2018-12-27T04:12:07.452Z,9.30
2018-12-27T04:14:35.096Z,9.50
2018-12-27T04:17:02.834Z,9.60
2018-12-27T04:19:30.597Z,9.40
2018-12-27T04:21:58.209Z,9.50
2018-12-27T04:24:26.027Z,9.60
2018-12-27T04:26:53.622Z,9.70
2018-12-27T04:29:21.421Z,9.70
2018-12-27T04:31:49.746Z,9.80
2018-12-27T04:34:17.834Z,9.90
2018-12-27T04:36:46.032Z,9.90
2018-12-27T04:39:13.863Z,10.00
2018-12-27T04:41:41.705Z,10.00
2018-12-27T04:44:09.878Z,10.00
2018-12-27T04:46:37.512Z,9.70
2018-12-27T04:49:05.434Z,9.60
2018-12-27T04:51:33.261Z,9.40
2018-12-27T04:54:00.860Z,9.50
2018-12-27T04:56:28.598Z,9.00
2018-12-27T04:58:56.218Z,8.30
2018-12-27T05:01:23.896Z,7.90
2018-12-27T05:03:51.499Z,7.50
2018-12-27T05:06:19.336Z,7.10
2018-12-27T05:08:59.320Z,7.30
2018-12-27T05:11:27.247Z,7.50
2018-12-27T05:13:55.101Z,7.60
2018-12-27T05:16:22.808Z,7.60
2018-12-27T05:18:50.442Z,7.80
2018-12-27T05:21:18.179Z,7.80
2018-12-27T05:23:45.889Z,8.00
2018-12-27T05:26:13.508Z,8.20
2018-12-27T05:28:41.248Z,8.10
2018-12-27T05:31:08.853Z,8.10
2018-12-27T05:33:36.540Z,7.90
2018-12-27T05:36:04.326Z,7.70
2018-12-27T05:38:32.047Z,7.80
2018-12-27T05:40:59.644Z,7.80
2018-12-27T05:43:27.539Z,7.80
2018-12-27T05:45:55.167Z,7.60
2018-12-27T05:48:23.038Z,7.60
2018-12-27T05:50:50.769Z,7.50
2018-12-27T05:53:18.613Z,7.40
2018-12-27T05:55:46.374Z,7.20
2018-12-27T05:58:14.126Z,7.20
2018-12-27T06:00:42.841Z,7.50
2018-12-27T06:03:10.561Z,7.80
2018-12-27T06:05:38.269Z,7.90
2018-12-27T06:08:06.025Z,7.80
2018-12-27T06:10:33.739Z,7.80
2018-12-27T06:13:01.343Z,7.90
2018-12-27T06:15:29.077Z,8.10
2018-12-27T06:17:56.691Z,8.20
2018-12-27T06:20:24.423Z,8.30
2018-12-27T06:22:52.123Z,8.30
2018-12-27T06:25:19.722Z,8.30
2018-12-27T06:27:47.467Z,8.20
2018-12-27T06:30:15.074Z,8.30
2018-12-27T06:32:42.783Z,8.30
2018-12-27T06:35:10.382Z,8.30
2018-12-27T06:37:38.210Z,8.40
2018-12-27T06:40:05.861Z,8.30
2018-12-27T06:42:33.613Z,8.10
2018-12-27T06:45:02.441Z,8.20
2018-12-27T06:47:30.094Z,8.20
2018-12-27T06:49:57.773Z,8.20
2018-12-27T06:52:25.429Z,8.30
2018-12-27T06:54:53.353Z,8.20
2018-12-27T06:57:21.031Z,8.20
2018-12-27T06:59:48.861Z,8.10
2018-12-27T07:02:16.467Z,7.90
2018-12-27T07:04:48.871Z,8.00
2018-12-27T07:07:13.715Z,7.80
2018-12-27T07:09:41.567Z,7.90
2018-12-27T07:12:09.380Z,7.90
2018-12-27T07:14:37.039Z,8.00
2018-12-27T07:17:04.829Z,8.20
2018-12-27T07:19:32.457Z,8.00
2018-12-27T07:22:00.275Z,8.10
2018-12-27T07:24:27.913Z,8.30
2018-12-27T07:26:55.711Z,8.40
2018-12-27T07:29:23.307Z,8.50
2018-12-27T07:31:51.141Z,8.20
2018-12-27T07:34:18.805Z,8.20
2018-12-27T07:36:46.670Z,8.30
2018-12-27T07:39:14.286Z,8.20
2018-12-27T07:41:42.029Z,8.00
2018-12-27T07:44:09.900Z,7.80
2018-12-27T07:46:37.653Z,7.80
2018-12-27T07:49:06.705Z,7.80
2018-12-27T07:51:34.514Z,7.80
2018-12-27T07:54:02.278Z,7.90
2018-12-27T07:56:30.109Z,8.00
2018-12-27T07:58:57.948Z,8.00
2018-12-27T08:01:26.660Z,7.70
2018-12-27T08:03:54.454Z,7.80
2018-12-27T08:06:22.520Z,8.00
2018-12-27T08:08:50.555Z,8.00
2018-12-27T08:11:18.218Z,8.10
2018-12-27T08:13:46.326Z,8.20
2018-12-27T08:16:14.072Z,8.00
2018-12-27T08:18:41.818Z,7.80
2018-12-27T08:21:09.471Z,7.50
2018-12-27T08:23:37.075Z,7.40
2018-12-27T08:26:04.794Z,7.50
2018-12-27T08:28:32.408Z,7.40
2018-12-27T08:31:00.293Z,7.20
2018-12-27T08:33:27.916Z,7.20
2018-12-27T08:35:55.824Z,7.00
2018-12-27T08:38:23.581Z,7.00
2018-12-27T08:40:52.074Z,6.80
2018-12-27T08:43:27.739Z,7.10
2018-12-27T08:45:55.860Z,7.10
2018-12-27T08:48:27.984Z,7.10
2018-12-27T08:50:56.398Z,7.10
2018-12-27T08:53:24.215Z,7.10
2018-12-27T08:55:51.844Z,7.20
2018-12-27T08:58:19.660Z,7.30
2018-12-27T09:00:47.260Z,7.20
2018-12-27T09:03:14.999Z,7.10
2018-12-27T09:05:42.721Z,7.10
2018-12-27T09:08:10.942Z,7.10
2018-12-27T09:10:38.763Z,7.00
2018-12-27T09:13:07.900Z,6.80
2018-12-27T09:15:35.528Z,6.80
2018-12-27T09:18:03.330Z,7.10
2018-12-27T09:20:30.953Z,7.20
2018-12-27T09:22:58.909Z,7.10
2018-12-27T09:25:26.669Z,7.10
2018-12-27T09:27:54.301Z,6.90
2018-12-27T09:30:22.085Z,6.90
2018-12-27T09:32:50.064Z,7.10
2018-12-27T09:35:18.243Z,7.30
2018-12-27T09:37:45.883Z,7.50
2018-12-27T09:40:13.659Z,7.50
2018-12-27T09:42:43.287Z,7.40
2018-12-27T09:45:11.143Z,7.40
2018-12-27T09:47:38.763Z,7.30
2018-12-27T09:50:06.613Z,7.30
2018-12-27T09:52:34.373Z,7.20
2018-12-27T09:55:02.233Z,7.20
2018-12-27T09:57:29.976Z,7.50
2018-12-27T09:59:57.778Z,7.40
2018-12-27T10:02:25.524Z,7.70
2018-12-27T10:04:53.250Z,7.80
2018-12-27T10:07:21.155Z,8.00
2018-12-27T10:09:48.791Z,8.10
2018-12-27T10:12:16.664Z,8.20
2018-12-27T10:14:44.310Z,8.50
2018-12-27T10:17:12.165Z,8.50
2018-12-27T10:19:39.778Z,8.50
2018-12-27T10:22:07.409Z,8.60
2018-12-27T10:24:35.171Z,8.50
2018-12-27T10:27:02.897Z,8.30
2018-12-27T10:29:30.514Z,8.40
2018-12-27T10:31:58.156Z,8.30
2018-12-27T10:34:27.089Z,8.70
2018-12-27T10:36:54.689Z,9.00
2018-12-27T10:39:23.829Z,9.30
2018-12-27T10:41:51.607Z,9.80
2018-12-27T10:44:19.379Z,10.20
2018-12-27T10:46:47.154Z,10.50
2018-12-27T10:49:14.816Z,10.80
2018-12-27T10:51:43.536Z,11.20
2018-12-27T10:54:13.037Z,11.20
2018-12-27T10:56:40.658Z,11.50
2018-12-27T10:59:08.396Z,11.50
2018-12-27T11:01:38.064Z,11.20
2018-12-27T11:04:05.707Z,11.40
2018-12-27T11:06:33.503Z,11.70
2018-12-27T11:09:01.553Z,11.90
2018-12-27T11:11:31.079Z,11.60
2018-12-27T11:14:18.201Z,11.60
2018-12-27T11:16:46.276Z,11.70
2018-12-27T11:19:13.916Z,11.80
2018-12-27T11:21:41.827Z,11.90
2018-12-27T11:24:10.538Z,12.10
2018-12-27T11:26:38.295Z,12.20
2018-12-27T11:29:06.143Z,12.00
2018-12-27T11:31:33.790Z,12.10
2018-12-27T11:34:01.422Z,12.10
2018-12-27T11:36:30.246Z,12.20
2018-12-27T11:38:57.849Z,12.20
2018-12-27T11:41:25.759Z,11.90
2018-12-27T11:43:53.570Z,11.70
2018-12-27T11:46:21.287Z,11.80
2018-12-27T11:48:49.052Z,12.10
2018-12-27T11:51:16.813Z,12.10
2018-12-27T11:53:44.426Z,11.90
2018-12-27T11:56:12.129Z,11.90
2018-12-27T11:58:39.866Z,12.00
2018-12-27T12:01:07.654Z,12.20
2018-12-27T12:03:35.393Z,12.10
2018-12-27T12:06:03.648Z,12.50
2018-12-27T12:08:31.388Z,12.50
2018-12-27T12:10:58.998Z,12.40
2018-12-27T12:13:26.768Z,12.40
2018-12-27T12:15:54.509Z,12.40
2018-12-27T12:18:22.275Z,12.50
2018-12-27T12:20:49.871Z,12.40
2018-12-27T12:23:17.512Z,12.00
2018-12-27T12:25:45.135Z,12.20
2018-12-27T12:28:12.881Z,11.60
2018-12-27T12:30:40.536Z,11.50
2018-12-27T12:33:08.259Z,10.90
2018-12-27T12:35:35.988Z,10.50
2018-12-27T12:38:03.637Z,10.10
2018-12-27T12:40:31.254Z,10.10
2018-12-27T12:42:59.038Z,10.50
2018-12-27T12:45:26.810Z,10.60
2018-12-27T12:47:54.427Z,10.80
2018-12-27T12:50:22.148Z,10.80
2018-12-27T12:52:49.803Z,10.90
2018-12-27T12:55:17.546Z,10.60
2018-12-27T12:57:45.529Z,10.50
2018-12-27T13:00:13.286Z,10.40
2018-12-27T13:02:40.911Z,10.70
2018-12-27T13:05:08.538Z,10.90
2018-12-27T13:07:36.262Z,11.00
2018-12-27T13:10:03.968Z,11.00
2018-12-27T13:12:31.677Z,11.00
2018-12-27T13:14:59.289Z,11.10
2018-12-27T13:17:27.150Z,10.90
2018-12-27T13:19:54.998Z,10.80
2018-12-27T13:22:22.624Z,10.70
2018-12-27T13:24:50.294Z,10.80
2018-12-27T13:27:17.882Z,10.40
2018-12-27T13:29:45.600Z,10.60
2018-12-27T13:32:13.259Z,10.80
2018-12-27T13:34:40.988Z,10.80
2018-12-27T13:37:08.689Z,10.90
2018-12-27T13:39:36.432Z,10.90
2018-12-27T13:42:04.053Z,10.90
2018-12-27T13:44:31.811Z,11.00
2018-12-27T13:46:59.587Z,11.00
2018-12-27T13:49:27.370Z,10.60
2018-12-27T13:51:54.975Z,10.40
2018-12-27T13:54:22.695Z,10.30
2018-12-27T13:56:50.464Z,10.40
2018-12-27T13:59:18.083Z,10.30
2018-12-27T14:01:45.855Z,10.20
2018-12-27T14:04:13.500Z,10.40
2018-12-27T14:06:41.224Z,10.50
2018-12-27T14:09:08.857Z,10.60
2018-12-27T14:11:36.609Z,10.40
2018-12-27T14:14:04.375Z,10.40
2018-12-27T14:16:32.095Z,10.50
2018-12-27T14:18:59.726Z,10.30
2018-12-27T14:21:27.459Z,10.30
2018-12-27T14:23:55.077Z,10.20
2018-12-27T14:26:22.798Z,10.20
2018-12-27T14:28:50.435Z,10.40
2018-12-27T14:31:18.154Z,10.30
2018-12-27T14:33:45.745Z,10.30
2018-12-27T14:36:14.441Z,10.10
2018-12-27T14:38:42.213Z,10.20
2018-12-27T14:41:09.947Z,10.10
2018-12-27T14:43:37.617Z,9.90
2018-12-27T14:46:05.331Z,10.10
2018-12-27T14:48:33.088Z,10.30
2018-12-27T14:51:00.682Z,10.40
2018-12-27T14:53:28.397Z,10.40
2018-12-27T14:55:56.001Z,10.40
2018-12-27T14:58:23.909Z,10.60
2018-12-27T15:00:51.609Z,10.70
2018-12-27T15:03:19.278Z,10.60
2018-12-27T15:05:46.883Z,10.70
2018-12-27T15:08:14.552Z,10.70
2018-12-27T15:10:42.405Z,10.70
2018-12-27T15:13:10.738Z,10.60
2018-12-27T15:15:38.852Z,10.60
2018-12-27T15:18:06.692Z,10.60
2018-12-27T15:20:34.760Z,10.50
2018-12-27T15:23:02.348Z,10.30
2018-12-27T15:25:30.064Z,10.30
2018-12-27T15:27:58.217Z,10.00
2018-12-27T15:30:26.312Z,10.00
2018-12-27T15:32:54.348Z,9.70
2018-12-27T15:35:22.622Z,9.50
2018-12-27T15:37:50.403Z,9.40
2018-12-27T15:40:18.522Z,9.30
2018-12-27T15:42:46.526Z,9.50
2018-12-27T15:45:14.582Z,9.60
2018-12-27T15:47:42.462Z,9.40
2018-12-27T15:50:10.381Z,9.30
2018-12-27T15:52:38.420Z,9.30
2018-12-27T15:55:07.604Z,9.20
2018-12-27T15:57:35.346Z,9.30
2018-12-27T16:00:03.535Z,9.00
2018-12-27T16:02:31.258Z,8.90
2018-12-27T16:04:59.024Z,9.20
2018-12-27T16:07:26.789Z,9.20
2018-12-27T16:09:54.516Z,8.90
2018-12-27T16:12:22.303Z,8.80
2018-12-27T16:14:50.038Z,8.60
2018-12-27T16:17:17.655Z,8.80
2018-12-27T16:19:45.350Z,8.80
2018-12-27T16:22:12.979Z,9.20
2018-12-27T16:24:40.865Z,9.00
2018-12-27T16:27:08.542Z,8.90
2018-12-27T16:29:36.385Z,9.10
2018-12-27T16:32:04.199Z,9.30
2018-12-27T16:34:32.141Z,9.40
2018-12-27T16:36:59.751Z,9.50
2018-12-27T16:39:27.515Z,9.80
2018-12-27T16:41:55.216Z,9.90
2018-12-27T16:44:22.850Z,10.10
2018-12-27T16:46:50.625Z,10.10
2018-12-27T16:49:18.269Z,10.10
2018-12-27T16:51:46.193Z,10.20
2018-12-27T16:54:13.980Z,10.30
2018-12-27T16:56:41.730Z,10.30
2018-12-27T16:59:09.362Z,10.30
2018-12-27T17:01:37.216Z,10.30
2018-12-27T17:04:04.846Z,10.20
2018-12-27T17:06:32.545Z,10.10
2018-12-27T17:09:00.160Z,9.90
2018-12-27T17:11:27.900Z,9.70
2018-12-27T17:13:55.592Z,9.60
2018-12-27T17:16:23.557Z,9.40
2018-12-27T17:18:51.321Z,9.40
2018-12-27T17:21:19.340Z,9.30
2018-12-27T17:23:47.168Z,9.50
2018-12-27T17:26:15.332Z,9.60
2018-12-27T17:28:43.250Z,9.50
2018-12-27T17:31:10.912Z,9.50
2018-12-27T17:33:38.552Z,9.50
2018-12-27T17:36:06.204Z,9.60
2018-12-27T17:38:33.862Z,9.80
2018-12-27T17:41:01.700Z,10.00
2018-12-27T17:43:29.321Z,10.10
2018-12-27T17:45:56.997Z,10.20
2018-12-27T17:48:24.784Z,10.30
2018-12-27T17:50:52.490Z,10.40
2018-12-27T17:53:20.168Z,10.50
2018-12-27T17:55:47.974Z,10.50
2018-12-27T17:58:15.595Z,10.60
2018-12-27T18:00:43.316Z,10.70
2018-12-27T18:03:10.943Z,10.70
2018-12-27T18:05:38.614Z,10.70
2018-12-27T18:08:06.312Z,10.80
2018-12-27T18:10:34.096Z,10.80
2018-12-27T18:13:02.729Z,10.80
2018-12-27T18:15:30.385Z,10.80
2018-12-27T18:17:58.160Z,10.80
2018-12-27T18:20:25.907Z,10.80
2018-12-27T18:22:53.733Z,10.90
2018-12-27T18:25:21.373Z,10.90
2018-12-27T18:27:49.071Z,10.90
2018-12-27T18:30:16.974Z,10.80
2018-12-27T18:32:44.711Z,10.80
2018-12-27T18:35:12.621Z,10.80
2018-12-27T18:37:40.290Z,10.70
2018-12-27T18:40:08.067Z,10.70
2018-12-27T18:42:35.807Z,10.60
2018-12-27T18:45:04.162Z,10.30
2018-12-27T18:47:32.155Z,10.10
2018-12-27T18:49:59.957Z,9.80
2018-12-27T18:52:28.003Z,9.50
2018-12-27T18:54:55.688Z,9.60
2018-12-27T18:57:23.439Z,9.70
2018-12-27T18:59:51.501Z,9.80
2018-12-27T19:02:19.365Z,9.90
2018-12-27T19:04:47.406Z,10.00
2018-12-27T19:07:16.254Z,10.10
2018-12-27T19:09:43.918Z,10.10
2018-12-27T19:12:49.204Z,10.20
2018-12-27T19:15:20.332Z,10.20
2018-12-27T19:18:03.517Z,10.20
2018-12-27T19:20:37.139Z,10.20
2018-12-27T19:23:16.681Z,10.10
2018-12-27T19:25:44.497Z,10.20
2018-12-27T19:28:12.377Z,9.90
2018-12-27T19:30:40.077Z,9.80
2018-12-27T19:33:08.367Z,9.80
2018-12-27T19:35:36.606Z,9.70
2018-12-27T19:38:04.972Z,9.50
2018-12-27T19:40:32.866Z,9.60
2018-12-27T19:43:00.818Z,9.60
2018-12-27T19:45:28.416Z,9.40
2018-12-27T19:47:56.862Z,9.30
2018-12-27T19:50:25.162Z,9.20
2018-12-27T19:52:52.856Z,9.30
2018-12-27T19:55:21.053Z,9.30
2018-12-27T19:57:48.704Z,9.20
2018-12-27T20:00:16.638Z,9.20
2018-12-27T20:02:44.355Z,9.20
2018-12-27T20:05:12.290Z,9.40
2018-12-27T20:07:40.269Z,9.50
2018-12-27T20:10:08.199Z,9.30
2018-12-27T20:12:36.241Z,9.40
2018-12-27T20:15:04.215Z,9.50
2018-12-27T20:17:31.892Z,9.50
2018-12-27T20:19:59.743Z,9.70
2018-12-27T20:22:27.592Z,9.60
2018-12-27T20:24:55.383Z,9.70
2018-12-27T20:27:23.066Z,9.70
2018-12-27T20:29:50.855Z,9.40
2018-12-27T20:32:18.543Z,9.50
2018-12-27T20:34:46.768Z,9.60
2018-12-27T20:37:14.792Z,9.70
2018-12-27T20:39:42.652Z,9.70
2018-12-27T20:42:10.502Z,9.50
2018-12-27T20:44:38.169Z,9.50
2018-12-27T20:47:06.026Z,9.50
2018-12-27T20:49:33.696Z,9.50
2018-12-27T20:52:01.494Z,9.30
2018-12-27T20:54:29.248Z,9.30
2018-12-27T20:56:57.400Z,9.50
2018-12-27T20:59:25.856Z,9.60
2018-12-27T21:01:53.744Z,9.60
2018-12-27T21:04:21.614Z,9.60
2018-12-27T21:06:50.486Z,9.60
2018-12-27T21:09:18.464Z,9.40
2018-12-27T21:11:46.130Z,9.40
2018-12-27T21:14:14.246Z,9.20
2018-12-27T21:16:42.360Z,9.10
2018-12-27T21:19:11.146Z,8.90
2018-12-27T21:21:39.420Z,8.90
2018-12-27T21:24:07.160Z,8.70
2018-12-27T21:26:35.163Z,8.80
2018-12-27T21:29:03.046Z,9.00
2018-12-27T21:31:31.211Z,9.20
2018-12-27T21:33:59.002Z,9.00
2018-12-27T21:36:27.284Z,9.00
2018-12-27T21:38:55.239Z,9.10
2018-12-27T21:41:22.965Z,9.10
2018-12-27T21:43:53.627Z,9.00
2018-12-27T21:46:21.309Z,9.20
2018-12-27T21:48:49.057Z,9.40
2018-12-27T21:51:16.677Z,9.50
2018-12-27T21:53:47.784Z,9.60
2018-12-27T21:56:15.470Z,9.40
2018-12-27T21:58:43.182Z,9.40
2018-12-27T22:01:11.043Z,9.40
2018-12-27T22:03:38.653Z,9.20
2018-12-27T22:06:06.298Z,9.40
2018-12-27T22:08:34.050Z,9.30
2018-12-27T22:11:01.685Z,9.30
2018-12-27T22:13:29.702Z,9.10
2018-12-27T22:15:57.335Z,9.20
2018-12-27T22:18:25.069Z,9.30
2018-12-27T22:20:52.717Z,9.40
2018-12-27T22:23:20.655Z,9.60
2018-12-27T22:25:48.375Z,9.70
2018-12-27T22:28:16.026Z,9.80
2018-12-27T22:30:43.787Z,9.80
2018-12-27T22:33:11.441Z,10.00
2018-12-27T22:35:39.199Z,10.00
2018-12-27T22:38:06.870Z,10.10
2018-12-27T22:40:34.634Z,10.10
2018-12-27T22:43:02.493Z,10.20
2018-12-27T22:45:30.293Z,10.30
2018-12-27T22:47:57.933Z,10.30
2018-12-27T22:50:25.688Z,10.30
2018-12-27T22:52:53.327Z,10.40
2018-12-27T22:55:21.043Z,10.30
2018-12-27T22:57:48.736Z,10.10
2018-12-27T23:00:26.971Z,10.00
2018-12-27T23:02:54.698Z,9.50
2018-12-27T23:05:22.371Z,9.10
2018-12-27T23:07:50.089Z,8.90
2018-12-27T23:10:17.770Z,8.70
2018-12-27T23:12:45.514Z,8.60
2018-12-27T23:15:13.139Z,8.70
2018-12-27T23:17:41.118Z,8.80
2018-12-27T23:20:08.966Z,8.80
2018-12-27T23:22:36.724Z,8.60
2018-12-27T23:25:04.504Z,8.60
2018-12-27T23:27:32.324Z,8.80
2018-12-27T23:29:59.961Z,8.90
2018-12-27T23:32:27.751Z,9.00
2018-12-27T23:34:55.380Z,9.20
2018-12-27T23:37:23.095Z,9.30
2018-12-27T23:39:50.732Z,9.30
2018-12-27T23:42:18.549Z,9.20
2018-12-27T23:44:46.236Z,9.40
2018-12-27T23:47:14.092Z,9.20
2018-12-27T23:49:41.813Z,9.20
2018-12-27T23:52:09.519Z,9.30
2018-12-27T23:54:37.188Z,9.30
2018-12-27T23:57:04.990Z,9.40
2018-12-27T23:59:32.627Z,9.30
